createdAt,value
2023-04-19T00:01:16.799Z,13.52
2023-04-19T00:03:43.822Z,13.53
2023-04-19T00:06:10.842Z,13.46
2023-04-19T00:08:37.502Z,13.61
2023-04-19T00:11:04.115Z,13.48
2023-04-19T00:13:30.794Z,13.48
2023-04-19T00:15:57.437Z,13.53
2023-04-19T00:18:24.170Z,13.53
2023-04-19T00:20:51.135Z,13.46
2023-04-19T00:23:17.924Z,13.62
2023-04-19T00:25:49.136Z,13.47
2023-04-19T00:28:16.110Z,13.54
2023-04-19T00:30:42.980Z,13.50
2023-04-19T00:33:12.824Z,13.64
2023-04-19T00:35:41.942Z,13.52
2023-04-19T00:38:08.654Z,13.54
2023-04-19T00:40:37.779Z,13.50
2023-04-19T00:43:05.231Z,13.69
2023-04-19T00:45:35.148Z,13.58
2023-04-19T00:48:01.975Z,13.47
2023-04-19T00:50:28.951Z,13.69
2023-04-19T00:52:57.635Z,13.89
2023-04-19T00:55:25.545Z,13.82
2023-04-19T00:57:52.448Z,13.78
2023-04-19T01:00:20.027Z,13.67
2023-04-19T01:02:47.938Z,13.71
2023-04-19T01:05:15.334Z,13.96
2023-04-19T01:07:43.252Z,13.66
2023-04-19T01:10:10.514Z,13.74
2023-04-19T01:12:37.171Z,13.81
2023-04-19T01:15:04.221Z,13.92
2023-04-19T01:17:33.062Z,13.87
2023-04-19T01:20:06.926Z,13.93
2023-04-19T01:22:34.490Z,13.91
2023-04-19T01:25:01.702Z,13.90
2023-04-19T01:27:28.358Z,13.97
2023-04-19T01:29:55.223Z,13.98
2023-04-19T01:32:28.385Z,13.71
2023-04-19T01:34:56.171Z,13.72
2023-04-19T01:37:23.059Z,13.82
2023-04-19T01:39:51.859Z,13.77
2023-04-19T01:42:18.807Z,13.83
2023-04-19T01:44:45.812Z,13.79
2023-04-19T01:47:12.525Z,13.71
2023-04-19T01:49:40.089Z,13.86
2023-04-19T01:52:06.859Z,13.78
2023-04-19T01:54:33.547Z,13.82
2023-04-19T01:57:00.190Z,13.89
2023-04-19T01:59:26.916Z,13.92
2023-04-19T02:01:53.692Z,13.82
2023-04-19T02:04:21.929Z,13.90
2023-04-19T02:06:48.667Z,13.87
2023-04-19T02:09:15.302Z,13.61
2023-04-19T02:11:42.491Z,13.74
2023-04-19T02:14:09.106Z,13.68
2023-04-19T02:16:36.331Z,13.72
2023-04-19T02:19:04.360Z,13.71
2023-04-19T02:21:31.817Z,13.56
2023-04-19T02:23:58.615Z,13.50
2023-04-19T02:26:25.901Z,13.56
2023-04-19T02:28:53.099Z,13.62
2023-04-19T02:31:20.160Z,13.60
2023-04-19T02:33:47.023Z,13.79
2023-04-19T02:36:13.998Z,13.52
2023-04-19T02:38:40.649Z,13.61
2023-04-19T02:41:07.424Z,13.74
2023-04-19T02:43:34.123Z,13.72
2023-04-19T02:46:01.898Z,13.59
2023-04-19T02:48:28.613Z,13.52
2023-04-19T02:50:55.341Z,13.43
2023-04-19T02:53:22.792Z,13.35
2023-04-19T02:55:50.191Z,13.39
2023-04-19T02:58:19.332Z,13.57
2023-04-19T03:01:00.660Z,13.42
2023-04-19T03:03:27.477Z,13.61
2023-04-19T03:05:54.249Z,13.45
2023-04-19T03:08:21.181Z,13.31
2023-04-19T03:10:47.820Z,13.30
2023-04-19T03:13:14.421Z,13.47
2023-04-19T03:15:41.084Z,13.36
2023-04-19T03:18:08.354Z,13.33
2023-04-19T03:20:37.067Z,13.31
2023-04-19T03:23:03.727Z,13.16
2023-04-19T03:25:33.150Z,13.37
2023-04-19T03:28:12.958Z,13.26
2023-04-19T03:31:02.949Z,13.22
2023-04-19T03:33:29.696Z,12.89
2023-04-19T03:35:57.142Z,12.96
2023-04-19T03:38:24.159Z,13.03
2023-04-19T03:40:51.278Z,13.03
2023-04-19T03:43:18.845Z,13.08
2023-04-19T03:45:45.557Z,12.99
2023-04-19T03:48:12.559Z,13.01
2023-04-19T03:50:39.318Z,12.82
2023-04-19T03:53:06.184Z,12.93
2023-04-19T03:55:32.959Z,12.93
2023-04-19T03:58:01.103Z,12.91
2023-04-19T04:00:38.325Z,12.89
2023-04-19T04:03:05.053Z,12.92
2023-04-19T04:05:32.203Z,12.79
2023-04-19T04:08:00.166Z,12.68
2023-04-19T04:10:26.898Z,12.85
2023-04-19T04:12:53.683Z,12.84
2023-04-19T04:15:26.995Z,12.86
2023-04-19T04:17:54.295Z,12.88
2023-04-19T04:20:21.510Z,12.89
2023-04-19T04:22:49.855Z,12.91
2023-04-19T04:25:20.562Z,12.72
2023-04-19T04:27:52.060Z,12.73
2023-04-19T04:30:20.582Z,12.81
2023-04-19T04:32:51.186Z,12.87
2023-04-19T04:35:18.143Z,13.01
2023-04-19T04:38:04.482Z,13.05
2023-04-19T04:40:37.301Z,12.94
2023-04-19T04:43:05.035Z,13.06
2023-04-19T04:45:33.853Z,13.11
2023-04-19T04:48:02.137Z,13.12
2023-04-19T04:50:28.938Z,13.11
2023-04-19T04:52:56.051Z,13.29
2023-04-19T04:55:28.151Z,13.30
2023-04-19T04:57:54.963Z,13.42
2023-04-19T05:00:28.711Z,13.44
2023-04-19T05:03:02.999Z,13.48
2023-04-19T05:05:32.387Z,13.61
2023-04-19T05:07:59.289Z,13.62
2023-04-19T05:10:26.133Z,13.53
2023-04-19T05:12:53.156Z,13.58
2023-04-19T05:15:19.959Z,13.62
2023-04-19T05:17:53.037Z,13.60
2023-04-19T05:20:21.449Z,13.65
2023-04-19T05:22:57.211Z,13.76
2023-04-19T05:25:23.986Z,13.56
2023-04-19T05:27:50.659Z,13.72
2023-04-19T05:30:17.354Z,13.90
2023-04-19T05:32:45.589Z,13.90
2023-04-19T05:35:14.228Z,13.65
2023-04-19T05:37:41.760Z,13.59
2023-04-19T05:40:12.010Z,13.70
2023-04-19T05:42:38.750Z,13.78
2023-04-19T05:45:07.258Z,13.93
2023-04-19T05:47:34.247Z,13.98
2023-04-19T05:50:20.582Z,14.00
2023-04-19T05:53:07.224Z,14.01
2023-04-19T05:55:34.173Z,13.98
2023-04-19T05:58:00.959Z,13.96
2023-04-19T06:00:28.502Z,13.87
2023-04-19T06:03:02.160Z,13.72
2023-04-19T06:05:29.076Z,13.94
2023-04-19T06:08:02.861Z,13.99
2023-04-19T06:10:40.259Z,14.01
2023-04-19T06:13:16.132Z,14.26
2023-04-19T06:15:42.928Z,14.15
2023-04-19T06:18:10.991Z,14.30
2023-04-19T06:20:46.667Z,14.25
2023-04-19T06:23:14.909Z,14.31
2023-04-19T06:25:41.903Z,14.30
2023-04-19T06:28:08.622Z,14.34
2023-04-19T06:30:35.568Z,14.53
2023-04-19T06:33:03.413Z,14.49
2023-04-19T06:35:30.130Z,14.60
2023-04-19T06:37:56.810Z,14.55
2023-04-19T06:40:23.411Z,14.50
2023-04-19T06:42:50.320Z,14.55
2023-04-19T06:45:17.091Z,14.39
2023-04-19T06:47:44.006Z,14.41
2023-04-19T06:50:11.444Z,14.65
2023-04-19T06:52:38.942Z,14.60
2023-04-19T06:55:09.585Z,14.58
2023-04-19T06:57:36.310Z,14.39
2023-04-19T07:00:06.796Z,14.56
2023-04-19T07:02:33.688Z,14.66
2023-04-19T07:05:00.841Z,14.58
2023-04-19T07:07:27.757Z,14.48
2023-04-19T07:09:54.548Z,14.58
2023-04-19T07:12:21.687Z,14.59
2023-04-19T07:14:48.638Z,14.84
2023-04-19T07:17:15.395Z,14.60
2023-04-19T07:19:42.471Z,14.69
2023-04-19T07:22:09.095Z,14.87
2023-04-19T07:24:35.714Z,14.91
2023-04-19T07:27:02.598Z,14.78
2023-04-19T07:29:32.758Z,15.02
2023-04-19T07:32:01.339Z,14.96
2023-04-19T07:34:28.112Z,15.25
2023-04-19T07:36:54.725Z,15.31
2023-04-19T07:39:21.563Z,15.22
2023-04-19T07:41:48.214Z,15.27
2023-04-19T07:44:15.259Z,15.33
2023-04-19T07:46:45.263Z,15.42
2023-04-19T07:49:11.930Z,15.37
2023-04-19T07:51:38.573Z,15.40
2023-04-19T07:54:05.212Z,15.46
2023-04-19T07:56:31.898Z,15.29
2023-04-19T07:59:07.584Z,15.67
2023-04-19T08:01:36.923Z,15.77
2023-04-19T08:04:04.139Z,15.85
2023-04-19T08:06:32.450Z,16.23
2023-04-19T08:08:59.230Z,16.16
2023-04-19T08:11:28.977Z,16.30
2023-04-19T08:14:06.790Z,16.37
2023-04-19T08:17:19.181Z,16.76
2023-04-19T08:19:28.657Z,16.78
2023-04-19T08:21:55.718Z,17.13
2023-04-19T08:24:22.927Z,17.30
2023-04-19T08:26:53.810Z,17.25
2023-04-19T08:29:22.131Z,17.63
2023-04-19T08:31:48.887Z,18.19
2023-04-19T08:34:15.652Z,18.81
2023-04-19T08:39:20.936Z,19.99
2023-04-19T08:42:08.661Z,20.36
2023-04-19T08:44:54.292Z,20.84
2023-04-19T08:47:31.151Z,21.02
2023-04-19T08:52:47.955Z,22.10
2023-04-19T08:55:21.414Z,21.78
2023-04-19T08:57:48.594Z,21.90
2023-04-19T09:00:15.781Z,21.66
2023-04-19T09:02:49.997Z,21.13
2023-04-19T09:05:18.401Z,20.87
2023-04-19T09:07:46.561Z,21.10
2023-04-19T09:10:18.646Z,20.59
2023-04-19T09:13:05.684Z,20.68
2023-04-19T09:15:38.222Z,20.29
2023-04-19T09:18:07.253Z,20.42
2023-04-19T09:20:44.589Z,20.10
2023-04-19T09:23:14.259Z,19.82
2023-04-19T09:26:15.017Z,19.32
2023-04-19T09:28:38.893Z,19.63
2023-04-19T09:31:35.308Z,19.62
2023-04-19T09:34:16.209Z,18.90
2023-04-19T09:36:43.340Z,18.65
2023-04-19T09:39:11.132Z,18.88
2023-04-19T09:41:52.746Z,18.78
2023-04-19T09:46:53.542Z,18.49
2023-04-19T09:49:37.416Z,18.50
2023-04-19T09:52:14.341Z,18.33
2023-04-19T09:54:42.078Z,18.50
2023-04-19T09:57:08.934Z,18.12
2023-04-19T09:59:35.896Z,18.45
2023-04-19T10:02:04.931Z,18.53
2023-04-19T10:04:47.891Z,18.61
2023-04-19T10:07:30.106Z,18.62
2023-04-19T10:10:11.647Z,18.50
2023-04-19T10:13:11.072Z,18.07
2023-04-19T10:15:50.237Z,18.07
2023-04-19T10:18:19.798Z,17.96
2023-04-19T10:20:54.320Z,17.64
2023-04-19T10:23:22.348Z,17.86
2023-04-19T10:25:49.157Z,17.82
2023-04-19T10:28:17.034Z,17.83
2023-04-19T10:30:55.565Z,17.93
2023-04-19T10:33:27.700Z,17.96
2023-04-19T10:35:58.617Z,18.16
2023-04-19T10:38:48.015Z,18.28
2023-04-19T10:41:17.515Z,18.50
2023-04-19T10:44:08.354Z,18.59
2023-04-19T10:46:36.193Z,18.97
2023-04-19T10:49:04.781Z,18.85
2023-04-19T10:51:36.440Z,19.12
2023-04-19T10:54:27.462Z,19.53
2023-04-19T10:57:04.351Z,19.82
2023-04-19T10:59:35.039Z,20.26
2023-04-19T11:02:27.944Z,20.36
2023-04-19T11:04:54.849Z,20.73
2023-04-19T11:07:21.609Z,20.86
2023-04-19T11:09:49.693Z,20.57
2023-04-19T11:12:18.435Z,20.91
2023-04-19T11:14:52.649Z,20.89
2023-04-19T11:17:27.453Z,20.60
2023-04-19T11:20:09.253Z,20.22
2023-04-19T11:22:37.045Z,20.13
2023-04-19T11:25:10.829Z,20.51
2023-04-19T11:27:38.607Z,20.80
2023-04-19T11:30:07.889Z,20.68
2023-04-19T11:32:35.488Z,20.37
2023-04-19T11:35:08.114Z,19.93
2023-04-19T11:37:36.513Z,19.75
2023-04-19T11:40:05.601Z,19.14
2023-04-19T11:42:33.516Z,19.07
2023-04-19T11:45:00.258Z,18.67
2023-04-19T11:47:27.604Z,18.96
2023-04-19T11:49:57.588Z,18.94
2023-04-19T11:52:26.161Z,18.71
2023-04-19T11:54:53.461Z,18.75
2023-04-19T11:57:32.359Z,18.59
2023-04-19T12:00:12.381Z,18.41
2023-04-19T12:02:40.859Z,18.24
2023-04-19T12:05:15.598Z,18.52
2023-04-19T12:08:05.482Z,18.57
2023-04-19T12:10:32.923Z,18.86
2023-04-19T12:12:59.941Z,19.14
2023-04-19T12:15:46.461Z,19.02
2023-04-19T12:18:13.386Z,19.30
2023-04-19T12:20:45.978Z,19.41
2023-04-19T12:23:14.151Z,19.43
2023-04-19T12:25:41.730Z,19.89
2023-04-19T12:28:09.018Z,19.74
2023-04-19T12:30:36.971Z,20.13
2023-04-19T12:33:04.210Z,20.15
2023-04-19T12:35:30.894Z,20.35
2023-04-19T12:37:59.155Z,20.61
2023-04-19T12:40:27.476Z,20.18
2023-04-19T12:42:54.692Z,20.28
2023-04-19T12:45:24.214Z,19.99
2023-04-19T12:47:51.028Z,19.53
2023-04-19T12:50:17.728Z,20.08
2023-04-19T12:52:45.600Z,20.29
2023-04-19T12:55:12.366Z,20.21
2023-04-19T12:57:39.275Z,20.28
2023-04-19T13:00:07.395Z,21.01
2023-04-19T13:02:34.906Z,21.11
2023-04-19T13:05:02.481Z,21.31
2023-04-19T13:07:29.161Z,20.93
2023-04-19T13:09:57.000Z,20.74
2023-04-19T13:12:24.046Z,21.05
2023-04-19T13:14:52.229Z,20.81
2023-04-19T13:17:20.023Z,20.33
2023-04-19T13:19:47.437Z,20.12
2023-04-19T13:22:14.273Z,20.38
2023-04-19T13:24:40.984Z,20.90
2023-04-19T13:27:08.885Z,20.93
2023-04-19T13:29:36.418Z,20.21
2023-04-19T13:32:03.304Z,19.98
2023-04-19T13:34:29.924Z,19.58
2023-04-19T13:36:57.590Z,19.40
2023-04-19T13:39:24.392Z,19.28
2023-04-19T13:41:51.242Z,19.09
2023-04-19T13:44:18.125Z,19.10
2023-04-19T13:46:45.182Z,19.22
2023-04-19T13:49:12.023Z,19.24
2023-04-19T13:51:48.929Z,19.09
2023-04-19T13:54:18.572Z,19.01
2023-04-19T13:56:45.824Z,18.82
2023-04-19T13:59:12.526Z,18.65
2023-04-19T14:01:39.246Z,18.43
2023-04-19T14:04:06.091Z,18.53
2023-04-19T14:06:33.026Z,18.52
2023-04-19T14:08:59.684Z,18.38
2023-04-19T14:11:26.374Z,18.50
2023-04-19T14:13:53.493Z,18.26
2023-04-19T14:16:21.047Z,18.45
2023-04-19T14:18:47.893Z,18.62
2023-04-19T14:21:14.972Z,18.77
2023-04-19T14:23:41.600Z,19.01
2023-04-19T14:26:08.393Z,19.15
2023-04-19T14:28:35.062Z,19.46
2023-04-19T14:31:01.775Z,19.70
2023-04-19T14:33:28.461Z,19.87
2023-04-19T14:35:55.120Z,20.07
2023-04-19T14:38:21.719Z,20.17
2023-04-19T14:40:48.560Z,20.27
2023-04-19T14:43:16.348Z,20.03
2023-04-19T14:45:43.019Z,19.99
2023-04-19T14:48:12.423Z,19.90
2023-04-19T14:50:39.116Z,19.70
2023-04-19T14:53:05.884Z,19.36
2023-04-19T14:55:32.594Z,19.26
2023-04-19T14:57:59.216Z,19.09
2023-04-19T15:00:27.306Z,19.35
2023-04-19T15:02:54.148Z,19.54
2023-04-19T15:05:23.820Z,19.71
2023-04-19T15:07:50.621Z,19.73
2023-04-19T15:10:17.249Z,19.99
2023-04-19T15:12:43.913Z,20.03
2023-04-19T15:15:11.043Z,20.21
2023-04-19T15:17:37.742Z,19.97
2023-04-19T15:20:05.874Z,19.94
2023-04-19T15:22:33.685Z,19.63
2023-04-19T15:25:01.143Z,19.80
2023-04-19T15:27:27.978Z,19.85
2023-04-19T15:29:54.756Z,19.84
2023-04-19T15:32:21.363Z,19.87
2023-04-19T15:34:47.976Z,19.77
2023-04-19T15:37:14.927Z,19.75
2023-04-19T15:39:41.862Z,19.61
2023-04-19T15:42:08.659Z,19.18
2023-04-19T15:44:35.802Z,19.21
2023-04-19T15:47:02.564Z,18.91
2023-04-19T15:49:30.216Z,18.86
2023-04-19T15:51:59.878Z,18.83
2023-04-19T15:54:27.233Z,18.86
2023-04-19T15:56:54.594Z,18.95
2023-04-19T15:59:21.328Z,18.89
2023-04-19T16:01:48.060Z,18.96
2023-04-19T16:04:15.187Z,19.08
2023-04-19T16:06:42.086Z,18.94
2023-04-19T16:09:09.148Z,19.10
2023-04-19T16:11:36.066Z,19.10
2023-04-19T16:14:02.795Z,19.07
2023-04-19T16:16:33.560Z,18.83
2023-04-19T16:19:00.490Z,18.83
2023-04-19T16:21:28.674Z,18.89
2023-04-19T16:23:56.313Z,18.92
2023-04-19T16:26:23.355Z,18.86
2023-04-19T16:28:50.029Z,18.27
2023-04-19T16:31:16.834Z,18.05
2023-04-19T16:33:43.558Z,17.89
2023-04-19T16:36:10.302Z,17.83
2023-04-19T16:38:36.920Z,18.15
2023-04-19T16:41:05.519Z,18.12
2023-04-19T16:43:32.648Z,18.05
2023-04-19T16:45:59.398Z,17.88
2023-04-19T16:48:26.907Z,18.07
2023-04-19T16:50:53.699Z,18.06
2023-04-19T16:53:20.580Z,18.26
2023-04-19T16:55:47.241Z,18.28
2023-04-19T16:58:14.249Z,18.10
2023-04-19T17:00:41.077Z,17.57
2023-04-19T17:03:09.964Z,17.73
2023-04-19T17:05:36.905Z,17.69
2023-04-19T17:08:03.584Z,17.70
2023-04-19T17:10:33.068Z,17.70
2023-04-19T17:12:59.717Z,17.39
2023-04-19T17:15:26.644Z,17.33
2023-04-19T17:17:53.365Z,17.23
2023-04-19T17:20:20.118Z,17.21
2023-04-19T17:22:46.849Z,17.29
2023-04-19T17:25:13.721Z,17.19
2023-04-19T17:27:40.408Z,17.14
2023-04-19T17:30:07.731Z,16.83
2023-04-19T17:32:34.582Z,16.67
2023-04-19T17:35:01.268Z,16.82
2023-04-19T17:37:28.054Z,16.66
2023-04-19T17:39:54.940Z,16.51
2023-04-19T17:42:21.592Z,16.33
2023-04-19T17:44:48.236Z,16.13
2023-04-19T17:47:14.945Z,16.43
2023-04-19T17:49:45.265Z,16.53
2023-04-19T17:52:12.655Z,16.19
2023-04-19T17:54:39.506Z,16.36
2023-04-19T17:57:06.333Z,16.35
2023-04-19T17:59:32.933Z,16.43
2023-04-19T18:01:59.736Z,16.07
2023-04-19T18:04:26.616Z,16.21
2023-04-19T18:06:55.319Z,16.13
2023-04-19T18:09:25.934Z,16.03
2023-04-19T18:11:52.828Z,16.07
2023-04-19T18:14:19.447Z,16.02
2023-04-19T18:16:46.279Z,15.89
2023-04-19T18:19:12.993Z,15.84
2023-04-19T18:21:39.691Z,15.82
2023-04-19T18:24:06.590Z,15.75
2023-04-19T18:26:41.018Z,15.70
2023-04-19T18:29:07.910Z,15.72
2023-04-19T18:31:34.764Z,15.62
2023-04-19T18:34:02.129Z,15.26
2023-04-19T18:36:28.817Z,15.20
2023-04-19T18:38:56.107Z,15.28
2023-04-19T18:41:22.899Z,15.29
2023-04-19T18:44:08.095Z,15.22
2023-04-19T18:46:36.466Z,15.13
2023-04-19T18:49:03.137Z,15.15
2023-04-19T18:51:29.815Z,15.22
2023-04-19T18:53:56.481Z,15.08
2023-04-19T18:56:56.080Z,14.95
2023-04-19T18:59:10.326Z,15.06
2023-04-19T19:01:37.325Z,15.02
2023-04-19T19:06:33.958Z,14.82
2023-04-19T19:09:01.066Z,14.88
2023-04-19T19:11:51.862Z,14.72
2023-04-19T19:14:14.968Z,14.66
2023-04-19T19:16:51.450Z,14.71
2023-04-19T19:19:22.165Z,14.72
2023-04-19T19:21:48.859Z,14.44
2023-04-19T19:24:15.578Z,14.55
2023-04-19T19:26:42.436Z,14.41
2023-04-19T19:29:10.843Z,14.53
2023-04-19T19:31:37.738Z,14.52
2023-04-19T19:34:23.436Z,14.49
2023-04-19T19:36:51.686Z,14.51
2023-04-19T19:39:18.619Z,14.40
2023-04-19T19:44:15.102Z,14.30
2023-04-19T19:46:41.726Z,14.16
2023-04-19T19:49:12.640Z,14.22
2023-04-19T19:51:57.003Z,14.06
2023-04-19T19:54:24.660Z,13.97
2023-04-19T19:59:22.576Z,14.05
2023-04-19T20:01:55.038Z,14.13
2023-04-19T20:04:22.718Z,14.05
2023-04-19T20:09:19.833Z,13.82
2023-04-19T20:11:46.780Z,13.86
2023-04-19T20:14:13.503Z,13.77
2023-04-19T20:16:40.274Z,13.92
2023-04-19T20:19:09.844Z,13.72
2023-04-19T20:21:37.794Z,13.64
2023-04-19T20:24:05.814Z,13.61
2023-04-19T20:26:32.823Z,13.61
2023-04-19T20:29:00.781Z,13.70
2023-04-19T20:31:27.695Z,13.55
2023-04-19T20:33:54.609Z,13.53
2023-04-19T20:36:24.626Z,13.27
2023-04-19T20:38:51.567Z,13.37
2023-04-19T20:41:18.836Z,13.20
2023-04-19T20:43:45.536Z,13.20
2023-04-19T20:46:12.318Z,13.23
2023-04-19T20:48:39.098Z,13.29
2023-04-19T20:51:06.068Z,13.36
2023-04-19T20:53:32.761Z,13.24
2023-04-19T20:56:00.249Z,13.24
2023-04-19T20:58:26.931Z,13.10
2023-04-19T21:00:53.620Z,13.04
2023-04-19T21:03:20.961Z,13.10
2023-04-19T21:05:50.190Z,12.92
2023-04-19T21:08:18.695Z,12.97
2023-04-19T21:10:45.414Z,12.93
2023-04-19T21:13:12.107Z,12.89
2023-04-19T21:15:38.785Z,12.75
2023-04-19T21:18:05.619Z,12.72
2023-04-19T21:20:32.369Z,12.64
2023-04-19T21:23:00.060Z,12.74
2023-04-19T21:25:26.717Z,12.64
2023-04-19T21:27:53.416Z,12.80
2023-04-19T21:30:22.588Z,12.66
2023-04-19T21:32:49.741Z,12.73
2023-04-19T21:35:17.438Z,12.57
2023-04-19T21:37:44.076Z,12.73
2023-04-19T21:40:11.049Z,12.68
2023-04-19T21:42:37.766Z,12.60
2023-04-19T21:45:04.861Z,12.67
2023-04-19T21:47:32.032Z,12.57
2023-04-19T21:49:58.854Z,12.49
2023-04-19T21:52:25.487Z,12.49
2023-04-19T21:54:52.243Z,12.24
2023-04-19T21:57:22.063Z,12.38
2023-04-19T21:59:48.763Z,12.31
2023-04-19T22:02:15.487Z,12.19
2023-04-19T22:04:42.152Z,12.17
2023-04-19T22:07:09.857Z,12.10
2023-04-19T22:09:36.452Z,12.13
2023-04-19T22:12:03.597Z,12.20
2023-04-19T22:14:30.843Z,12.11
2023-04-19T22:16:59.708Z,12.22
2023-04-19T22:19:26.448Z,12.11
2023-04-19T22:21:53.451Z,12.23
2023-04-19T22:24:21.789Z,12.07
2023-04-19T22:26:50.043Z,11.98
2023-04-19T22:29:17.320Z,11.93
2023-04-19T22:31:44.250Z,12.06
2023-04-19T22:34:10.894Z,11.79
2023-04-19T22:36:37.571Z,11.74
2023-04-19T22:39:04.796Z,11.86
2023-04-19T22:41:33.066Z,11.74
2023-04-19T22:44:00.269Z,11.93
2023-04-19T22:46:27.430Z,11.78
2023-04-19T22:48:56.042Z,11.78
2023-04-19T22:51:24.230Z,11.79
2023-04-19T22:53:51.024Z,11.76
2023-04-19T22:56:20.994Z,11.61
2023-04-19T22:58:47.645Z,11.63
2023-04-19T23:01:14.516Z,11.47
2023-04-19T23:03:41.169Z,11.47
2023-04-19T23:06:08.050Z,11.53
2023-04-19T23:08:35.121Z,11.65
2023-04-19T23:11:01.789Z,11.52
2023-04-19T23:13:28.556Z,11.63
2023-04-19T23:15:55.234Z,11.65
2023-04-19T23:18:21.945Z,11.64
2023-04-19T23:20:48.637Z,11.54
2023-04-19T23:23:15.385Z,11.55
2023-04-19T23:25:42.379Z,11.54
2023-04-19T23:28:10.410Z,11.50
2023-04-19T23:30:39.238Z,11.50
2023-04-19T23:33:06.045Z,11.49
2023-04-19T23:35:32.836Z,11.34
2023-04-19T23:37:59.577Z,11.36
2023-04-19T23:40:26.375Z,11.34
2023-04-19T23:42:53.272Z,11.21
2023-04-19T23:45:19.962Z,11.32
2023-04-19T23:47:46.655Z,11.31
2023-04-19T23:50:13.353Z,11.20
2023-04-19T23:52:40.583Z,11.17
2023-04-19T23:55:07.502Z,11.19
2023-04-19T23:57:35.447Z,11.10
